createdAt,value
2019-03-12T00:01:11.347Z,2.60
2019-03-12T00:03:40.295Z,3.00
2019-03-12T00:06:09.119Z,2.97
2019-03-12T00:08:38.306Z,2.80
2019-03-12T00:11:07.291Z,2.50
2019-03-12T00:13:36.118Z,2.80
2019-03-12T00:16:04.986Z,2.67
2019-03-12T00:18:33.807Z,2.50
2019-03-12T00:21:02.555Z,2.70
2019-03-12T00:23:31.348Z,3.03
2019-03-12T00:26:00.122Z,2.47
2019-03-12T00:28:29.035Z,2.47
2019-03-12T00:30:57.779Z,2.70
2019-03-12T00:33:26.787Z,2.50
2019-03-12T00:35:55.638Z,2.50
2019-03-12T00:38:24.645Z,2.60
2019-03-12T00:40:53.396Z,2.67
2019-03-12T00:43:22.205Z,3.37
2019-03-12T00:45:51.771Z,2.50
2019-03-12T00:48:20.724Z,2.80
2019-03-12T00:50:49.925Z,3.10
2019-03-12T00:53:18.718Z,2.90
2019-03-12T00:55:47.551Z,3.30
2019-03-12T00:58:16.333Z,2.50
2019-03-12T01:00:45.125Z,2.50
2019-03-12T01:03:14.139Z,2.90
2019-03-12T01:05:42.914Z,2.80
2019-03-12T01:08:11.805Z,2.57
2019-03-12T01:10:40.627Z,2.60
2019-03-12T01:13:20.000Z,3.30
2019-03-12T01:15:50.855Z,2.97
2019-03-12T01:18:20.896Z,2.87
2019-03-12T01:20:49.758Z,2.87
2019-03-12T01:23:18.518Z,2.90
2019-03-12T01:25:47.303Z,2.50
2019-03-12T01:28:16.863Z,3.20
2019-03-12T01:30:45.674Z,3.00
2019-03-12T01:33:14.711Z,2.65
2019-03-12T01:35:43.740Z,7.57
2019-03-12T01:38:12.511Z,4.10
2019-03-12T01:40:41.621Z,3.00
2019-03-12T01:43:10.434Z,3.40
2019-03-12T01:45:39.422Z,3.17
2019-03-12T01:48:08.398Z,3.23
2019-03-12T01:50:37.266Z,3.00
2019-03-12T01:53:06.036Z,3.13
2019-03-12T01:55:35.136Z,3.80
2019-03-12T01:58:03.985Z,3.67
2019-03-12T02:00:32.979Z,3.80
2019-03-12T02:03:01.818Z,3.77
2019-03-12T02:05:30.930Z,3.83
2019-03-12T02:07:59.810Z,2.93
2019-03-12T02:10:28.851Z,3.00
2019-03-12T02:12:57.788Z,4.27
2019-03-12T02:15:26.921Z,3.70
2019-03-12T02:17:55.737Z,3.93
2019-03-12T02:20:24.575Z,3.27
2019-03-12T02:22:54.390Z,3.47
2019-03-12T02:25:23.396Z,3.40
2019-03-12T02:27:57.289Z,2.90
2019-03-12T02:30:26.037Z,3.03
2019-03-12T02:32:54.790Z,3.47
2019-03-12T02:35:23.518Z,3.63
2019-03-12T02:37:52.483Z,3.50
2019-03-12T02:40:21.264Z,3.83
2019-03-12T02:42:50.147Z,3.90
2019-03-12T02:45:18.875Z,3.27
2019-03-12T02:47:47.707Z,3.60
2019-03-12T02:50:16.654Z,4.03
2019-03-12T02:52:45.489Z,3.90
2019-03-12T02:55:14.971Z,3.47
2019-03-12T02:57:44.543Z,3.80
2019-03-12T03:00:15.102Z,3.97
2019-03-12T03:02:43.876Z,4.03
2019-03-12T03:05:12.662Z,4.10
2019-03-12T03:07:55.260Z,4.30
2019-03-12T03:10:24.157Z,4.10
2019-03-12T03:12:53.027Z,4.23
2019-03-12T03:15:22.891Z,4.67
2019-03-12T03:17:51.660Z,4.87
2019-03-12T03:20:20.459Z,4.97
2019-03-12T03:22:49.354Z,4.27
2019-03-12T03:25:18.258Z,4.77
2019-03-12T03:27:48.955Z,5.20
2019-03-12T03:30:19.026Z,5.20
2019-03-12T03:32:47.931Z,4.70
2019-03-12T03:35:16.824Z,5.00
2019-03-12T03:37:45.781Z,4.90
2019-03-12T03:40:15.369Z,4.93
2019-03-12T03:42:44.296Z,5.77
2019-03-12T03:45:13.844Z,6.37
2019-03-12T03:47:43.465Z,5.83
2019-03-12T03:50:12.588Z,5.53
2019-03-12T03:52:41.437Z,5.53
2019-03-12T03:55:11.248Z,5.73
2019-03-12T03:57:39.996Z,5.83
2019-03-12T04:00:10.448Z,6.53
2019-03-12T04:02:39.197Z,6.30
2019-03-12T04:05:09.399Z,6.93
2019-03-12T04:07:39.971Z,6.60
2019-03-12T04:10:09.635Z,7.13
2019-03-12T04:12:38.371Z,6.87
2019-03-12T04:15:07.801Z,7.57
2019-03-12T04:17:36.571Z,7.70
2019-03-12T04:20:06.149Z,7.73
2019-03-12T04:22:34.893Z,7.97
2019-03-12T04:25:03.971Z,7.53
2019-03-12T04:27:32.738Z,7.57
2019-03-12T04:30:01.647Z,8.70
2019-03-12T04:32:30.497Z,8.40
2019-03-12T04:34:59.367Z,8.10
2019-03-12T04:37:28.287Z,8.27
2019-03-12T04:39:57.015Z,8.50
2019-03-12T04:42:25.798Z,8.30
2019-03-12T04:44:54.551Z,8.53
2019-03-12T04:47:23.323Z,8.67
2019-03-12T04:49:52.065Z,8.63
2019-03-12T04:52:20.815Z,8.43
2019-03-12T04:54:49.686Z,8.03
2019-03-12T04:57:18.454Z,8.37
2019-03-12T04:59:47.185Z,8.67
2019-03-12T05:02:16.052Z,7.90
2019-03-12T05:04:44.885Z,8.30
2019-03-12T05:07:13.796Z,8.03
2019-03-12T05:09:42.710Z,7.90
2019-03-12T05:12:11.498Z,8.27
2019-03-12T05:14:41.650Z,7.33
2019-03-12T05:17:11.483Z,7.93
2019-03-12T05:19:44.145Z,8.30
2019-03-12T05:22:12.975Z,8.23
2019-03-12T05:24:42.029Z,8.13
2019-03-12T05:27:10.883Z,7.53
2019-03-12T05:29:39.826Z,8.10
2019-03-12T05:32:08.572Z,7.50
2019-03-12T05:34:37.343Z,7.73
2019-03-12T05:37:06.147Z,6.70
2019-03-12T05:39:34.986Z,7.00
2019-03-12T05:42:03.765Z,6.87
2019-03-12T05:44:32.546Z,6.70
2019-03-12T05:47:01.458Z,7.33
2019-03-12T05:49:30.242Z,6.80
2019-03-12T05:51:59.037Z,7.57
2019-03-12T05:54:27.969Z,6.63
2019-03-12T05:56:56.758Z,7.73
2019-03-12T05:59:25.589Z,7.53
2019-03-12T06:01:54.569Z,6.60
2019-03-12T06:04:23.471Z,6.57
2019-03-12T06:06:52.218Z,5.97
2019-03-12T06:09:30.336Z,6.60
2019-03-12T06:11:51.724Z,6.47
2019-03-12T06:14:20.842Z,6.03
2019-03-12T06:16:49.598Z,6.83
2019-03-12T06:19:18.569Z,5.90
2019-03-12T06:21:47.352Z,6.23
2019-03-12T06:24:16.134Z,6.23
2019-03-12T06:26:44.953Z,5.80
2019-03-12T06:29:13.992Z,5.97
2019-03-12T06:32:01.883Z,5.70
2019-03-12T06:34:52.806Z,5.53
2019-03-12T06:37:40.118Z,5.53
2019-03-12T06:40:14.695Z,5.30
2019-03-12T06:42:51.245Z,5.83
2019-03-12T06:45:37.784Z,5.77
2019-03-12T06:48:33.790Z,5.73
2019-03-12T06:51:20.349Z,5.90
2019-03-12T06:54:05.378Z,4.93
2019-03-12T06:57:02.347Z,5.10
2019-03-12T06:59:53.147Z,5.20
2019-03-12T07:02:43.783Z,5.13
2019-03-12T07:05:30.323Z,5.07
2019-03-12T07:08:08.868Z,4.80
2019-03-12T07:11:02.626Z,5.00
2019-03-12T07:13:37.011Z,5.30
2019-03-12T07:16:13.671Z,5.47
2019-03-12T07:19:01.827Z,4.83
2019-03-12T07:21:38.409Z,5.60
2019-03-12T07:24:16.041Z,5.50
2019-03-12T07:27:02.834Z,5.43
2019-03-12T07:29:56.737Z,5.70
2019-03-12T07:32:49.178Z,5.60
2019-03-12T07:35:46.183Z,4.77
2019-03-12T07:38:20.536Z,5.07
2019-03-12T07:41:25.183Z,4.97
2019-03-12T07:44:04.135Z,4.70
2019-03-12T07:46:54.702Z,4.93
2019-03-12T07:49:41.104Z,5.60
2019-03-12T07:52:19.107Z,5.67
2019-03-12T07:54:58.634Z,5.17
2019-03-12T07:57:45.383Z,5.10
2019-03-12T08:00:22.496Z,4.73
2019-03-12T08:03:09.154Z,4.30
2019-03-12T08:06:06.405Z,4.67
2019-03-12T08:08:45.109Z,4.73
2019-03-12T08:11:30.672Z,4.43
2019-03-12T08:14:26.778Z,4.30
2019-03-12T08:17:16.980Z,3.70
2019-03-12T08:20:23.165Z,3.90
2019-03-12T08:23:10.991Z,4.13
2019-03-12T08:26:05.049Z,3.90
2019-03-12T08:28:48.423Z,4.50
2019-03-12T08:31:39.384Z,4.57
2019-03-12T08:34:26.140Z,4.53
2019-03-12T08:37:14.028Z,3.63
2019-03-12T08:40:00.483Z,4.17
2019-03-12T08:42:54.846Z,3.90
2019-03-12T08:45:39.313Z,3.87
2019-03-12T08:48:27.355Z,3.43
2019-03-12T08:51:21.022Z,3.47
2019-03-12T08:54:01.770Z,3.50
2019-03-12T08:56:49.595Z,3.80
2019-03-12T08:59:31.107Z,3.77
2019-03-12T09:02:22.211Z,4.20
2019-03-12T09:05:06.119Z,3.67
2019-03-12T09:07:41.836Z,3.50
2019-03-12T09:10:38.728Z,3.60
2019-03-12T09:13:32.551Z,3.90
2019-03-12T09:16:32.828Z,3.20
2019-03-12T09:19:26.624Z,3.40
2019-03-12T09:22:03.540Z,3.97
2019-03-12T09:24:50.472Z,3.43
2019-03-12T09:27:37.690Z,4.17
2019-03-12T09:30:24.157Z,3.40
2019-03-12T09:33:12.308Z,3.40
2019-03-12T09:35:51.368Z,2.70
2019-03-12T09:38:32.026Z,3.63
2019-03-12T09:41:22.640Z,3.33
2019-03-12T09:44:19.773Z,3.37
2019-03-12T09:47:06.626Z,3.13
2019-03-12T09:49:40.897Z,3.10
2019-03-12T09:52:22.299Z,3.27
2019-03-12T09:55:05.035Z,3.00
2019-03-12T09:57:46.634Z,3.07
2019-03-12T10:00:37.822Z,3.40
2019-03-12T10:03:40.765Z,3.43
2019-03-12T10:06:34.408Z,3.13
2019-03-12T10:09:23.714Z,3.03
2019-03-12T10:12:06.842Z,3.17
2019-03-12T10:14:53.779Z,3.07
2019-03-12T10:17:45.312Z,3.50
2019-03-12T10:20:42.451Z,3.37
2019-03-12T10:23:45.434Z,2.70
2019-03-12T10:26:39.313Z,3.77
2019-03-12T10:29:23.627Z,3.37
2019-03-12T10:32:06.530Z,3.63
2019-03-12T10:34:48.115Z,3.43
2019-03-12T10:37:42.797Z,4.05
2019-03-12T10:40:35.352Z,3.40
2019-03-12T10:43:32.860Z,3.70
2019-03-12T10:46:23.650Z,3.10
2019-03-12T10:48:52.459Z,3.00
2019-03-12T10:51:21.227Z,2.63
2019-03-12T10:53:49.979Z,2.97
2019-03-12T10:56:18.791Z,2.60
2019-03-12T10:58:47.646Z,3.10
2019-03-12T11:01:17.199Z,2.60
2019-03-12T11:03:46.049Z,2.30
2019-03-12T11:06:15.283Z,2.63
2019-03-12T11:08:44.060Z,2.90
2019-03-12T11:11:12.935Z,2.17
2019-03-12T11:13:41.739Z,3.13
2019-03-12T11:16:10.536Z,2.90
2019-03-12T11:18:39.281Z,2.53
2019-03-12T11:21:08.048Z,2.63
2019-03-12T11:23:36.906Z,2.73
2019-03-12T11:26:05.669Z,2.80
2019-03-12T11:28:34.653Z,2.47
2019-03-12T11:31:03.418Z,2.97
2019-03-12T11:33:32.395Z,2.33
2019-03-12T11:36:01.244Z,2.83
2019-03-12T11:38:30.562Z,2.43
2019-03-12T11:40:59.358Z,2.53
2019-03-12T11:43:28.316Z,1.75
2019-03-12T11:45:57.233Z,1.87
2019-03-12T11:48:26.056Z,2.83
2019-03-12T11:50:55.202Z,2.20
2019-03-12T11:53:24.203Z,2.27
2019-03-12T11:55:53.228Z,2.03
2019-03-12T11:58:22.014Z,2.57
2019-03-12T12:00:56.246Z,2.00
2019-03-12T12:03:25.084Z,2.00
2019-03-12T12:05:54.065Z,1.83
2019-03-12T12:08:22.891Z,1.97
2019-03-12T12:10:51.639Z,1.93
2019-03-12T12:13:20.483Z,1.90
2019-03-12T12:15:49.248Z,2.33
2019-03-12T12:18:18.386Z,1.80
2019-03-12T12:20:47.184Z,1.93
2019-03-12T12:23:16.034Z,2.13
2019-03-12T12:25:44.792Z,1.90
2019-03-12T12:28:13.571Z,2.10
2019-03-12T12:30:42.303Z,1.77
2019-03-12T12:33:11.503Z,1.80
2019-03-12T12:35:40.247Z,2.10
2019-03-12T12:38:09.080Z,2.10
2019-03-12T12:40:37.853Z,2.10
2019-03-12T12:43:06.629Z,2.10
2019-03-12T12:45:35.522Z,2.50
2019-03-12T12:48:04.585Z,1.80
2019-03-12T12:50:33.599Z,2.43
2019-03-12T12:53:02.342Z,1.90
2019-03-12T12:55:31.193Z,2.00
2019-03-12T12:58:00.091Z,2.10
2019-03-12T13:00:29.049Z,2.13
2019-03-12T13:02:57.786Z,2.20
2019-03-12T13:05:26.608Z,1.57
2019-03-12T13:07:55.444Z,2.30
2019-03-12T13:10:25.021Z,1.97
2019-03-12T13:12:53.800Z,2.07
2019-03-12T13:15:22.684Z,4.70
2019-03-12T13:17:51.494Z,2.10
2019-03-12T13:20:20.243Z,2.50
2019-03-12T13:22:49.039Z,2.40
2019-03-12T13:25:18.205Z,2.25
2019-03-12T13:27:48.758Z,2.40
2019-03-12T13:30:18.434Z,2.33
2019-03-12T13:32:47.288Z,1.90
2019-03-12T13:35:16.066Z,2.23
2019-03-12T13:37:44.902Z,1.90
2019-03-12T13:40:14.841Z,2.10
2019-03-12T13:42:43.768Z,1.90
2019-03-12T13:45:13.664Z,1.90
2019-03-12T13:47:42.473Z,2.00
2019-03-12T13:50:11.626Z,2.03
2019-03-12T13:52:40.549Z,1.90
2019-03-12T13:55:10.035Z,2.33
2019-03-12T13:57:38.861Z,2.07
2019-03-12T14:00:09.738Z,1.90
2019-03-12T14:02:38.924Z,2.37
2019-03-12T14:05:07.971Z,2.17
2019-03-12T14:07:38.018Z,2.47
2019-03-12T14:10:08.030Z,2.33
2019-03-12T14:12:37.000Z,2.17
2019-03-12T14:15:06.467Z,2.80
2019-03-12T14:17:35.442Z,2.07
2019-03-12T14:20:11.263Z,2.10
2019-03-12T14:22:40.144Z,2.10
2019-03-12T14:25:08.931Z,1.90
2019-03-12T14:27:38.215Z,1.90
2019-03-12T14:30:07.467Z,2.00
2019-03-12T14:32:36.271Z,2.37
2019-03-12T14:35:05.562Z,2.30
2019-03-12T14:37:36.103Z,1.80
2019-03-12T14:40:05.314Z,2.00
2019-03-12T14:42:34.108Z,1.70
2019-03-12T14:45:03.042Z,1.90
2019-03-12T14:47:31.981Z,2.17
2019-03-12T14:50:02.208Z,1.80
2019-03-12T14:52:33.279Z,2.00
2019-03-12T14:55:02.314Z,1.80
2019-03-12T14:57:31.264Z,2.37
2019-03-12T15:00:00.482Z,1.97
2019-03-12T15:02:29.404Z,2.03
2019-03-12T15:04:59.426Z,2.00
2019-03-12T15:07:28.161Z,1.67
2019-03-12T15:09:57.552Z,1.60
2019-03-12T15:12:26.485Z,1.80
2019-03-12T15:14:55.248Z,2.00
2019-03-12T15:17:24.165Z,1.93
2019-03-12T15:19:53.000Z,2.20
2019-03-12T15:22:21.837Z,1.90
2019-03-12T15:24:50.777Z,2.13
2019-03-12T15:27:19.531Z,2.50
2019-03-12T15:29:48.424Z,2.33
2019-03-12T15:32:17.224Z,2.27
2019-03-12T15:34:46.080Z,2.40
2019-03-12T15:37:14.883Z,2.00
2019-03-12T15:39:43.648Z,1.70
2019-03-12T15:42:12.482Z,2.10
2019-03-12T15:44:41.660Z,2.23
2019-03-12T15:47:10.468Z,2.37
2019-03-12T15:49:43.057Z,2.40
2019-03-12T15:52:11.110Z,1.90
2019-03-12T15:54:40.151Z,1.80
2019-03-12T15:57:09.222Z,1.77
2019-03-12T15:59:38.245Z,1.80
2019-03-12T16:02:07.017Z,1.87
2019-03-12T16:04:35.804Z,2.00
2019-03-12T16:07:04.592Z,2.40
2019-03-12T16:09:35.731Z,2.57
2019-03-12T16:12:04.728Z,2.00
2019-03-12T16:14:33.616Z,2.47
2019-03-12T16:17:02.596Z,2.47
2019-03-12T16:19:31.406Z,1.83
2019-03-12T16:22:00.439Z,2.37
2019-03-12T16:24:29.324Z,2.00
2019-03-12T16:26:58.455Z,1.90
2019-03-12T16:29:27.325Z,2.10
2019-03-12T16:31:56.231Z,2.27
2019-03-12T16:34:25.619Z,2.20
2019-03-12T16:36:54.430Z,1.93
2019-03-12T16:39:23.322Z,2.20
2019-03-12T16:41:52.205Z,1.80
2019-03-12T16:44:21.243Z,2.30
2019-03-12T16:46:50.414Z,2.10
2019-03-12T16:49:19.448Z,2.25
2019-03-12T16:51:48.261Z,2.00
2019-03-12T16:54:17.131Z,2.33
2019-03-12T16:56:45.971Z,2.00
2019-03-12T16:59:14.799Z,2.03
2019-03-12T17:01:44.603Z,2.67
2019-03-12T17:04:13.583Z,2.57
2019-03-12T17:06:42.731Z,2.10
2019-03-12T17:09:11.808Z,2.20
2019-03-12T17:11:40.579Z,2.10
2019-03-12T17:14:09.541Z,2.23
2019-03-12T17:16:38.445Z,2.30
2019-03-12T17:19:07.395Z,2.00
2019-03-12T17:21:36.262Z,2.00
2019-03-12T17:24:05.088Z,2.03
2019-03-12T17:26:34.411Z,1.70
2019-03-12T17:29:03.427Z,1.83
2019-03-12T17:31:32.243Z,2.13
2019-03-12T17:34:01.116Z,1.90
2019-03-12T17:36:30.008Z,1.90
2019-03-12T17:38:59.623Z,2.17
2019-03-12T17:41:28.548Z,1.60
2019-03-12T17:43:58.025Z,1.67
2019-03-12T17:46:27.295Z,2.00
2019-03-12T17:48:58.905Z,1.70
2019-03-12T17:51:27.723Z,2.10
2019-03-12T17:53:57.391Z,1.60
2019-03-12T17:56:26.780Z,1.80
2019-03-12T17:58:55.550Z,1.60
2019-03-12T18:01:29.582Z,1.80
2019-03-12T18:03:55.219Z,1.90
2019-03-12T18:06:24.106Z,1.77
2019-03-12T18:08:52.943Z,1.87
2019-03-12T18:11:23.674Z,1.80
2019-03-12T18:13:52.648Z,1.87
2019-03-12T18:16:21.591Z,1.90
2019-03-12T18:18:50.567Z,1.90
2019-03-12T18:21:19.717Z,2.20
2019-03-12T18:23:50.296Z,2.03
2019-03-12T18:26:19.353Z,1.50
2019-03-12T18:28:48.613Z,1.80
2019-03-12T18:31:17.554Z,1.80
2019-03-12T18:33:46.576Z,1.80
2019-03-12T18:36:16.132Z,1.80
2019-03-12T18:38:45.057Z,1.63
2019-03-12T18:41:13.962Z,1.80
2019-03-12T18:43:42.990Z,1.90
2019-03-12T18:46:12.242Z,1.50
2019-03-12T18:48:44.526Z,1.83
2019-03-12T18:51:12.546Z,1.80
2019-03-12T18:53:41.679Z,2.37
2019-03-12T18:56:11.179Z,1.93
2019-03-12T18:58:42.293Z,1.90
2019-03-12T19:01:12.167Z,1.63
2019-03-12T19:03:41.307Z,1.93
2019-03-12T19:06:10.370Z,2.07
2019-03-12T19:08:39.465Z,1.83
2019-03-12T19:11:08.512Z,1.60
2019-03-12T19:13:39.014Z,1.67
2019-03-12T19:16:08.180Z,1.80
2019-03-12T19:18:37.246Z,1.70
2019-03-12T19:21:06.073Z,1.73
2019-03-12T19:23:35.023Z,1.80
2019-03-12T19:26:04.288Z,1.63
2019-03-12T19:28:33.300Z,1.60
2019-03-12T19:31:16.420Z,1.67
2019-03-12T19:33:45.992Z,1.73
2019-03-12T19:36:14.795Z,1.83
2019-03-12T19:38:43.869Z,1.80
2019-03-12T19:41:12.706Z,1.67
2019-03-12T19:43:41.647Z,1.67
2019-03-12T19:46:10.597Z,2.10
2019-03-12T19:48:39.459Z,2.00
2019-03-12T19:51:08.512Z,2.07
2019-03-12T19:53:37.452Z,2.20
2019-03-12T19:56:06.737Z,2.07
2019-03-12T19:58:35.693Z,1.83
2019-03-12T20:01:05.383Z,2.00
2019-03-12T20:03:36.294Z,1.80
2019-03-12T20:06:05.326Z,1.93
2019-03-12T20:08:35.004Z,1.73
2019-03-12T20:11:31.999Z,2.37
2019-03-12T20:14:18.847Z,1.93
2019-03-12T20:17:09.987Z,1.93
2019-03-12T20:19:58.097Z,1.95
2019-03-12T20:22:45.499Z,2.47
2019-03-12T20:25:51.779Z,1.93
2019-03-12T20:28:33.923Z,2.03
2019-03-12T20:31:28.288Z,1.90
2019-03-12T20:34:15.193Z,2.10
2019-03-12T20:37:01.965Z,1.83
2019-03-12T20:39:48.726Z,1.80
2019-03-12T20:42:36.830Z,1.90
2019-03-12T20:45:23.580Z,2.10
2019-03-12T20:48:10.246Z,2.13
2019-03-12T20:51:04.418Z,2.00
2019-03-12T20:53:55.233Z,2.00
2019-03-12T20:56:52.484Z,1.73
2019-03-12T20:59:39.500Z,2.30
2019-03-12T21:02:42.932Z,2.07
2019-03-12T21:05:29.491Z,2.00
2019-03-12T21:08:16.796Z,1.80
2019-03-12T21:11:03.450Z,2.10
2019-03-12T21:14:03.539Z,2.23
2019-03-12T21:16:59.238Z,2.20
2019-03-12T21:19:50.600Z,1.83
2019-03-12T21:22:37.425Z,2.10
2019-03-12T21:25:15.570Z,2.10
2019-03-12T21:28:09.244Z,2.53
2019-03-12T21:30:38.085Z,2.13
2019-03-12T21:33:15.306Z,2.20
2019-03-12T21:35:38.010Z,2.63
2019-03-12T21:38:06.994Z,2.60
2019-03-12T21:40:36.404Z,2.33
2019-03-12T21:43:05.391Z,1.93
2019-03-12T21:45:34.294Z,1.70
2019-03-12T21:48:03.491Z,1.30
2019-03-12T21:50:32.944Z,1.10
2019-03-12T21:53:01.874Z,1.23
2019-03-12T21:55:30.864Z,0.83
2019-03-12T21:57:59.950Z,0.90
2019-03-12T22:00:28.877Z,0.90
2019-03-12T22:02:58.033Z,1.00
2019-03-12T22:05:26.945Z,0.73
2019-03-12T22:07:55.822Z,0.80
2019-03-12T22:10:24.654Z,0.87
2019-03-12T22:12:53.752Z,1.10
2019-03-12T22:15:22.633Z,0.90
2019-03-12T22:17:51.616Z,1.50
2019-03-12T22:20:20.603Z,1.20
2019-03-12T22:23:09.094Z,1.10
2019-03-12T22:25:38.189Z,1.13
2019-03-12T22:28:07.215Z,1.10
2019-03-12T22:30:36.414Z,1.20
2019-03-12T22:33:05.267Z,1.30
2019-03-12T22:35:34.369Z,1.30
2019-03-12T22:38:03.235Z,1.27
2019-03-12T22:40:32.032Z,1.50
2019-03-12T22:43:01.033Z,1.80
2019-03-12T22:45:29.830Z,2.00
2019-03-12T22:48:00.276Z,2.00
2019-03-12T22:50:29.465Z,2.40
2019-03-12T22:52:58.308Z,2.70
2019-03-12T22:55:27.236Z,2.40
2019-03-12T22:57:56.170Z,2.47
2019-03-12T23:00:26.302Z,2.60
2019-03-12T23:02:55.231Z,2.80
2019-03-12T23:05:24.819Z,2.70
2019-03-12T23:07:53.738Z,2.97
2019-03-12T23:10:23.326Z,3.03
2019-03-12T23:12:52.667Z,3.07
2019-03-12T23:15:21.528Z,3.20
2019-03-12T23:17:50.421Z,2.87
2019-03-12T23:20:20.036Z,2.87
2019-03-12T23:22:52.013Z,3.07
2019-03-12T23:25:20.801Z,3.37
2019-03-12T23:27:49.685Z,3.13
2019-03-12T23:30:19.090Z,3.30
2019-03-12T23:32:47.892Z,3.63
2019-03-12T23:35:17.130Z,3.40
2019-03-12T23:37:46.109Z,3.90
2019-03-12T23:40:15.222Z,3.90
2019-03-12T23:42:44.285Z,3.97
2019-03-12T23:45:13.343Z,3.60
2019-03-12T23:47:42.228Z,4.20
2019-03-12T23:50:11.929Z,4.07
2019-03-12T23:52:40.813Z,3.70
2019-03-12T23:55:09.854Z,3.50
2019-03-12T23:57:38.872Z,3.77
